Time;durP1;ratioP1;P1;durP2;ratioP2;P2;SDS_P1;SDS_P2;PMS_P1;PMS_P2;Temp;Humidity;BMP_temperature;BMP_pressure;BME280_temperature;BME280_humidity;BME280_pressure;Samples;Min_cycle;Max_cycle;Signal;HPM_P1;HPM_P2
2022/01/27 00:00:49;;;;;;;43.78;25.67;;;4.80;99.90;;;;;;5062762;28;20437;-59
2022/01/27 00:03:29;;;;;;;40.67;24.90;;;4.80;99.90;;;;;;5065432;28;20017;-59
2022/01/27 00:06:00;;;;;;;40.75;24.35;;;4.80;99.90;;;;;;5061515;28;20111;-59
2022/01/27 00:08:53;;;;;;;39.55;23.38;;;4.80;99.90;;;;;;5057513;28;20020;-59
2022/01/27 00:11:14;;;;;;;41.78;24.38;;;4.80;99.90;;;;;;5060378;28;20053;-59
2022/01/27 00:13:58;;;;;;;40.03;24.23;;;4.80;99.90;;;;;;5054345;28;20021;-59
2022/01/27 00:16:27;;;;;;;45.17;26.65;;;4.80;99.90;;;;;;5059626;28;20560;-59
2022/01/27 00:18:55;;;;;;;43.90;26.17;;;4.80;99.90;;;;;;5052837;28;20433;-59
2022/01/27 00:21:26;;;;;;;47.35;24.80;;;4.80;99.90;;;;;;5054030;28;20044;-59
2022/01/27 00:23:52;;;;;;;38.47;23.23;;;4.80;99.90;;;;;;5058209;28;20051;-59
2022/01/27 00:26:18;;;;;;;39.85;25.00;;;4.90;99.90;;;;;;5060783;28;20549;-59
2022/01/27 00:28:46;;;;;;;43.10;25.52;;;4.90;99.90;;;;;;5064892;28;20040;-59
2022/01/27 00:31:12;;;;;;;42.33;25.38;;;4.90;99.90;;;;;;5055244;28;20135;-59
2022/01/27 00:33:39;;;;;;;39.75;23.88;;;4.90;99.90;;;;;;5060450;28;20082;-59
2022/01/27 00:36:05;;;;;;;42.78;26.40;;;4.80;99.90;;;;;;5056809;28;20017;-59
2022/01/27 00:38:31;;;;;;;43.55;25.75;;;4.90;99.90;;;;;;5059824;28;20497;-59
2022/01/27 00:40:57;;;;;;;44.58;27.50;;;4.80;99.90;;;;;;5052598;28;20046;-59
2022/01/27 00:43:23;;;;;;;43.58;25.85;;;4.80;99.90;;;;;;5056319;28;20482;-59
2022/01/27 00:45:49;;;;;;;48.05;27.30;;;4.80;99.90;;;;;;5053340;28;20111;-59
2022/01/27 00:48:17;;;;;;;44.78;26.95;;;4.80;99.90;;;;;;5060733;28;20160;-59
2022/01/27 00:50:43;;;;;;;47.97;27.27;;;4.80;99.90;;;;;;5064408;28;20016;-59
2022/01/27 00:53:26;;;;;;;43.45;26.95;;;4.80;99.90;;;;;;5056031;28;20023;-59
2022/01/27 00:55:52;;;;;;;46.53;27.65;;;4.80;99.90;;;;;;5061743;28;20020;-59
2022/01/27 01:00:54;;;;;;;45.75;26.65;;;4.70;99.90;;;;;;5064544;28;20471;-59
2022/01/27 01:03:32;;;;;;;46.58;26.90;;;4.70;99.90;;;;;;5055278;28;20439;-59
2022/01/27 01:16:35;;;;;;;43.75;26.20;;;4.80;99.90;;;;;;5061575;28;20020;-59
2022/01/27 01:19:21;;;;;;;46.25;26.42;;;4.80;99.90;;;;;;5055863;28;20027;-59
2022/01/27 01:29:22;;;;;;;46.22;26.38;;;4.80;99.90;;;;;;5055418;28;20052;-59
2022/01/27 01:30:33;;;;;;;42.03;25.45;;;4.70;99.90;;;;;;5055478;28;20430;-59
2022/01/27 01:33:00;;;;;;;42.70;25.05;;;4.70;99.90;;;;;;5053197;28;20048;-59
2022/01/27 01:35:35;;;;;;;42.97;24.70;;;4.70;99.90;;;;;;5060751;28;20025;-59
2022/01/27 01:38:02;;;;;;;45.58;26.20;;;4.70;99.90;;;;;;5059668;28;20472;-59
2022/01/27 01:40:27;;;;;;;42.70;25.73;;;4.70;99.90;;;;;;5060559;28;20067;-59
2022/01/27 01:42:53;;;;;;;40.15;24.63;;;4.70;99.90;;;;;;5055741;28;20049;-59
2022/01/27 01:45:21;;;;;;;42.30;25.33;;;4.70;99.90;;;;;;5057951;28;20096;-59
2022/01/27 01:47:48;;;;;;;47.08;26.75;;;4.70;99.90;;;;;;5061413;28;20096;-59
2022/01/27 01:50:14;;;;;;;41.70;25.90;;;4.70;99.90;;;;;;5059712;28;20017;-60
2022/01/27 01:52:40;;;;;;;44.58;26.10;;;4.80;99.90;;;;;;5051144;28;20021;-59
2022/01/27 01:55:08;;;;;;;39.53;23.95;;;4.80;99.90;;;;;;5042995;28;20493;-59
2022/01/27 01:57:34;;;;;;;42.83;25.02;;;4.80;99.90;;;;;;5052638;28;20024;-59
2022/01/27 02:00:00;;;;;;;43.42;26.08;;;4.80;99.90;;;;;;5060446;28;20047;-59
2022/01/27 02:02:25;;;;;;;42.38;24.30;;;4.80;99.90;;;;;;5058288;28;20417;-59
2022/01/27 02:04:53;;;;;;;43.35;25.58;;;4.80;99.90;;;;;;5050898;28;20025;-59
2022/01/27 02:18:45;;;;;;;40.17;24.77;;;4.80;99.90;;;;;;5055686;28;20067;-59
2022/01/27 02:21:11;;;;;;;41.17;24.63;;;4.90;99.90;;;;;;5060273;28;20048;-59
2022/01/27 02:23:36;;;;;;;44.83;26.35;;;4.90;99.90;;;;;;5050666;28;20477;-59
2022/01/27 02:26:02;;;;;;;42.65;25.48;;;4.90;99.90;;;;;;5051611;28;20082;-59
2022/01/27 02:28:27;;;;;;;40.58;24.60;;;4.90;99.90;;;;;;5059452;28;20108;-59
2022/01/27 02:30:53;;;;;;;41.05;24.50;;;4.90;99.90;;;;;;5067358;28;20064;-59
2022/01/27 02:33:29;;;;;;;41.90;24.15;;;4.90;99.90;;;;;;5058665;28;20092;-60
2022/01/27 02:35:55;;;;;;;38.63;22.83;;;4.90;99.90;;;;;;5054660;28;20118;-59
2022/01/27 02:38:20;;;;;;;41.35;22.88;;;4.90;99.90;;;;;;5057026;28;20611;-59
2022/01/27 02:40:53;;;;;;;40.38;24.55;;;4.90;99.90;;;;;;5054188;28;20025;-59
2022/01/27 02:43:18;;;;;;;38.55;24.33;;;4.90;99.90;;;;;;5044782;28;20111;-59
2022/01/27 02:46:06;;;;;;;40.80;24.60;;;4.90;99.90;;;;;;5062524;28;20162;-59
2022/01/27 02:48:32;;;;;;;40.50;24.17;;;5.00;99.90;;;;;;5057162;28;20021;-59
2022/01/27 02:50:57;;;;;;;37.15;23.20;;;4.90;99.90;;;;;;5056388;28;20389;-59
2022/01/27 02:53:23;;;;;;;38.28;23.65;;;5.00;99.90;;;;;;5050588;28;20055;-59
2022/01/27 02:55:48;;;;;;;38.42;23.38;;;5.00;99.90;;;;;;5054030;28;20056;-59
2022/01/27 02:58:15;;;;;;;41.92;25.13;;;5.00;99.90;;;;;;5062472;28;20118;-59
2022/01/27 03:00:41;;;;;;;36.42;22.33;;;5.00;99.90;;;;;;5051578;28;20021;-59
2022/01/27 03:03:07;;;;;;;42.67;25.63;;;5.00;99.90;;;;;;5039415;28;20024;-59
2022/01/27 03:05:32;;;;;;;36.28;23.25;;;5.00;99.90;;;;;;5072089;28;20024;-59
2022/01/27 03:07:58;;;;;;;42.13;24.80;;;5.00;99.90;;;;;;5061536;28;20021;-59
2022/01/27 03:10:29;;;;;;;38.20;24.33;;;5.00;99.90;;;;;;5056651;28;20017;-59
2022/01/27 03:12:59;;;;;;;42.17;24.92;;;5.00;99.90;;;;;;5061237;28;20025;-59
2022/01/27 03:15:25;;;;;;;;;;;5.00;99.90;;;;;;5060701;28;20518;-59
2022/01/27 03:17:50;;;;;;;40.40;23.23;;;5.00;99.90;;;;;;5050067;28;19909;-59
2022/01/27 03:20:16;;;;;;;39.10;24.40;;;5.00;99.90;;;;;;5058125;28;20360;-59
2022/01/27 03:22:41;;;;;;;37.72;24.15;;;5.00;99.90;;;;;;5034124;28;20473;-59
2022/01/27 03:25:07;;;;;;;38.42;24.58;;;5.00;99.90;;;;;;5051124;28;20116;-59
2022/01/27 03:27:34;;;;;;;36.92;23.65;;;5.00;99.90;;;;;;5049897;28;20055;-59
2022/01/27 03:29:59;;;;;;;41.53;24.27;;;5.10;99.90;;;;;;5056871;28;20048;-59
2022/01/27 03:32:26;;;;;;;39.38;24.80;;;5.00;99.90;;;;;;5052678;28;20064;-59
2022/01/27 03:34:53;;;;;;;40.42;23.30;;;5.10;99.90;;;;;;5049733;28;20532;-59
2022/01/27 03:37:18;;;;;;;44.08;26.88;;;5.00;99.90;;;;;;5063049;28;20040;-59
2022/01/27 03:39:44;;;;;;;42.13;24.85;;;5.00;99.90;;;;;;5060002;28;20384;-60
2022/01/27 03:42:10;;;;;;;42.38;24.83;;;5.00;99.90;;;;;;5059132;28;20414;-59
2022/01/27 03:44:36;;;;;;;40.10;24.90;;;5.00;99.90;;;;;;5056014;28;20021;-59
2022/01/27 03:47:03;;;;;;;44.75;26.48;;;5.00;99.90;;;;;;5042246;28;20029;-59
2022/01/27 03:49:28;;;;;;;40.83;24.35;;;5.00;99.90;;;;;;5055297;28;20017;-60
2022/01/27 03:52:00;;;;;;;41.22;23.23;;;5.00;99.90;;;;;;5051339;28;20013;-59
2022/01/27 03:54:27;;;;;;;40.88;24.38;;;5.00;99.90;;;;;;5074628;28;20096;-59
2022/01/27 03:56:52;;;;;;;36.08;22.52;;;5.00;99.90;;;;;;5053427;28;20025;-60
2022/01/27 03:59:18;;;;;;;40.28;22.95;;;5.00;99.90;;;;;;5053020;28;20059;-59
2022/01/27 04:01:43;;;;;;;39.88;23.63;;;5.00;99.90;;;;;;5057154;28;20111;-59
2022/01/27 04:04:09;;;;;;;39.72;24.48;;;5.00;99.90;;;;;;5052992;28;20048;-59
2022/01/27 04:06:38;;;;;;;38.40;22.98;;;5.00;99.90;;;;;;5053176;28;20068;-59
2022/01/27 04:09:08;;;;;;;40.83;23.53;;;5.00;99.90;;;;;;5059750;28;20017;-59
2022/01/27 04:11:34;;;;;;;44.00;23.53;;;5.00;99.90;;;;;;5060485;28;20104;-59
2022/01/27 04:14:00;;;;;;;39.75;22.88;;;5.00;99.90;;;;;;5062278;28;20538;-59
2022/01/27 04:16:26;;;;;;;41.20;24.95;;;5.00;99.90;;;;;;5056338;28;20071;-59
2022/01/27 04:18:52;;;;;;;38.88;22.13;;;5.00;99.90;;;;;;5052663;28;20488;-59
2022/01/27 04:21:18;;;;;;;38.63;22.77;;;5.00;99.90;;;;;;5059148;28;20056;-59
2022/01/27 04:23:43;;;;;;;38.25;21.63;;;5.00;99.90;;;;;;5055789;28;20066;-59
2022/01/27 04:26:11;;;;;;;40.55;22.65;;;5.00;99.90;;;;;;5052845;28;20112;-59
2022/01/27 04:28:38;;;;;;;38.13;22.88;;;5.10;99.90;;;;;;5041452;28;20028;-59
2022/01/27 04:31:07;;;;;;;34.75;21.33;;;5.00;99.90;;;;;;5070171;28;20127;-59
2022/01/27 04:33:35;;;;;;;41.40;23.13;;;5.10;99.90;;;;;;5060668;28;20059;-59
2022/01/27 04:36:06;;;;;;;38.22;21.58;;;5.00;99.90;;;;;;5042255;28;20388;-59
2022/01/27 04:38:38;;;;;;;36.75;21.23;;;5.00;99.90;;;;;;5051404;28;20053;-59
2022/01/27 04:41:17;;;;;;;39.28;21.17;;;5.00;99.90;;;;;;5059731;28;20032;-59
2022/01/27 04:43:57;;;;;;;40.83;20.73;;;5.10;99.90;;;;;;5059091;28;20032;-59
2022/01/27 04:46:43;;;;;;;38.45;21.42;;;5.10;99.90;;;;;;5054847;28;20461;-59
2022/01/27 04:49:10;;;;;;;41.85;22.02;;;5.10;99.90;;;;;;5052399;28;20473;-59
2022/01/27 04:51:36;;;;;;;37.20;20.73;;;5.10;99.90;;;;;;5037581;28;20029;-59
2022/01/27 04:54:25;;;;;;;39.22;20.85;;;5.10;99.90;;;;;;5041687;28;20025;-59
2022/01/27 04:56:51;;;;;;;37.90;21.33;;;5.10;99.90;;;;;;5066344;28;20143;-59
2022/01/27 04:59:21;;;;;;;38.55;21.63;;;5.10;99.90;;;;;;5052023;28;20529;-59
2022/01/27 05:01:56;;;;;;;40.17;21.40;;;5.10;99.90;;;;;;5051397;28;20385;-60
2022/01/27 05:04:24;;;;;;;38.83;23.48;;;5.10;99.90;;;;;;5044176;28;20440;-59
2022/01/27 05:06:51;;;;;;;36.25;21.30;;;5.00;99.90;;;;;;5041227;28;20379;-59
2022/01/27 05:09:16;;;;;;;39.67;22.38;;;5.00;99.90;;;;;;5055610;28;20040;-59
2022/01/27 05:11:50;;;;;;;36.40;21.73;;;5.10;99.90;;;;;;5044295;28;20059;-59
2022/01/27 05:14:20;;;;;;;33.80;19.73;;;5.10;99.90;;;;;;5052955;28;20024;-59
2022/01/27 05:16:46;;;;;;;32.58;19.42;;;5.10;99.90;;;;;;5058266;28;20025;-59
2022/01/27 05:19:11;;;;;;;37.38;20.75;;;5.10;99.90;;;;;;5054125;28;20472;-59
2022/01/27 05:21:37;;;;;;;36.53;20.92;;;5.10;99.90;;;;;;5061828;28;20580;-59
2022/01/27 05:24:03;;;;;;;35.08;20.42;;;5.10;99.90;;;;;;5053442;28;20385;-59
2022/01/27 05:26:30;;;;;;;36.33;20.38;;;5.10;99.90;;;;;;5052817;28;20615;-59
2022/01/27 05:28:55;;;;;;;35.05;19.50;;;5.20;99.90;;;;;;5054571;28;20029;-59
2022/01/27 05:31:21;;;;;;;35.15;20.38;;;5.20;99.90;;;;;;5056230;28;20128;-59
2022/01/27 05:33:47;;;;;;;36.78;20.58;;;5.20;99.90;;;;;;5049750;28;20025;-59
2022/01/27 05:39:12;;;;;;;36.70;19.58;;;5.20;99.90;;;;;;5023336;28;20393;-59
2022/01/27 05:41:38;;;;;;;32.50;18.92;;;5.20;99.90;;;;;;5034452;28;20729;-59
2022/01/27 05:44:04;;;;;;;37.95;20.02;;;5.20;99.90;;;;;;5055148;28;20028;-59
2022/01/27 05:46:30;;;;;;;30.77;17.98;;;5.30;99.90;;;;;;5052122;28;20379;-59
2022/01/27 05:48:58;;;;;;;33.00;18.65;;;5.30;99.90;;;;;;5059531;28;20125;-59
2022/01/27 05:51:23;;;;;;;37.00;19.63;;;5.30;99.90;;;;;;5032455;28;20013;-59
2022/01/27 05:53:49;;;;;;;34.35;19.08;;;5.30;99.90;;;;;;5057980;28;20021;-59
2022/01/27 05:56:14;;;;;;;35.67;19.98;;;5.30;99.90;;;;;;5056566;28;20624;-59
2022/01/27 05:58:40;;;;;;;39.08;20.65;;;5.30;99.90;;;;;;5058714;28;20021;-59
2022/01/27 06:01:06;;;;;;;37.47;20.20;;;5.30;99.90;;;;;;5045428;28;20051;-59
2022/01/27 06:03:32;;;;;;;30.35;18.40;;;5.30;99.90;;;;;;5054807;28;20020;-59
2022/01/27 06:06:10;;;;;;;34.97;20.23;;;5.30;99.90;;;;;;5056746;28;20044;-59
2022/01/27 06:08:36;;;;;;;34.35;19.65;;;5.30;99.90;;;;;;5038764;28;20029;-59
2022/01/27 06:11:01;;;;;;;32.42;18.42;;;5.30;99.90;;;;;;5053853;28;20077;-60
2022/01/27 06:13:27;;;;;;;33.92;18.60;;;5.30;99.90;;;;;;5039045;28;20029;-59
2022/01/27 06:15:53;;;;;;;31.90;18.65;;;5.30;99.90;;;;;;5051862;28;20039;-59
2022/01/27 06:18:24;;;;;;;34.70;18.77;;;5.30;99.90;;;;;;5054567;28;20354;-59
2022/01/27 06:20:50;;;;;;;32.67;18.27;;;5.30;99.90;;;;;;5033873;28;20021;-59
2022/01/27 06:23:15;;;;;;;36.30;20.80;;;5.30;99.90;;;;;;5052021;28;20477;-59
2022/01/27 06:25:42;;;;;;;30.42;17.45;;;5.30;99.90;;;;;;5032317;28;20116;-59
2022/01/27 06:28:07;;;;;;;31.90;18.77;;;5.30;99.90;;;;;;5051560;28;20061;-59
2022/01/27 06:30:34;;;;;;;32.45;19.20;;;5.40;99.90;;;;;;5034436;28;20107;-59
2022/01/27 06:33:02;;;;;;;33.17;17.95;;;5.40;99.90;;;;;;5052909;28;20079;-59
2022/01/27 06:35:28;;;;;;;35.33;18.48;;;5.40;99.90;;;;;;5052739;28;20028;-59
2022/01/27 06:37:53;;;;;;;34.72;18.88;;;5.40;99.90;;;;;;5052804;28;20051;-59
2022/01/27 06:40:19;;;;;;;32.35;18.17;;;5.40;99.90;;;;;;5051537;28;20040;-59
2022/01/27 06:42:45;;;;;;;31.33;19.00;;;5.40;99.90;;;;;;5052591;28;20049;-59
2022/01/27 06:45:11;;;;;;;31.35;18.30;;;5.40;99.90;;;;;;5052574;28;20036;-59
2022/01/27 06:47:37;;;;;;;32.15;18.13;;;5.40;99.90;;;;;;5049592;28;20888;-59
2022/01/27 06:50:03;;;;;;;32.17;18.73;;;5.50;99.90;;;;;;5050929;28;20060;-59
2022/01/27 06:52:29;;;;;;;33.28;20.35;;;5.50;99.90;;;;;;5033609;28;20028;-59
2022/01/27 06:54:55;;;;;;;30.20;17.40;;;5.50;99.90;;;;;;5052444;28;20095;-59
2022/01/27 06:57:22;;;;;;;33.60;19.02;;;5.50;99.90;;;;;;5052491;28;20025;-59
2022/01/27 06:59:48;;;;;;;30.60;17.90;;;5.50;99.90;;;;;;5034613;28;20064;-59
2022/01/27 07:02:14;;;;;;;33.78;20.15;;;5.60;99.90;;;;;;5034491;28;20025;-59
2022/01/27 07:04:39;;;;;;;31.80;17.55;;;5.60;99.90;;;;;;5052393;28;20491;-59
2022/01/27 07:07:05;;;;;;;35.05;17.88;;;5.60;99.90;;;;;;5057095;28;20071;-59
2022/01/27 07:09:31;;;;;;;33.90;18.02;;;5.60;99.90;;;;;;5055553;28;20401;-59
2022/01/27 07:11:56;;;;;;;32.45;18.58;;;5.70;99.90;;;;;;5054024;28;20017;-59
2022/01/27 07:14:22;;;;;;;32.55;17.23;;;5.70;99.90;;;;;;5050968;28;20029;-59
2022/01/27 07:16:47;;;;;;;29.13;16.70;;;5.80;99.90;;;;;;5034232;28;20057;-59
2022/01/27 07:19:13;;;;;;;30.27;16.02;;;5.80;99.90;;;;;;5036367;28;20053;-60
2022/01/27 07:21:39;;;;;;;30.27;16.67;;;5.90;99.90;;;;;;5056355;28;20051;-59
2022/01/27 07:24:05;;;;;;;32.38;17.10;;;5.90;99.90;;;;;;5056101;28;20032;-59
2022/01/27 07:26:30;;;;;;;30.02;15.95;;;6.00;99.90;;;;;;5073352;28;20021;-59
2022/01/27 07:28:57;;;;;;;28.88;16.05;;;6.00;99.90;;;;;;5058055;28;20126;-59
2022/01/27 07:31:23;;;;;;;27.67;16.90;;;6.10;99.90;;;;;;5072316;28;20036;-59
2022/01/27 07:33:51;;;;;;;30.23;17.40;;;6.10;99.90;;;;;;5074657;28;20027;-59
2022/01/27 07:36:16;;;;;;;31.35;16.27;;;6.10;99.90;;;;;;5056863;28;20090;-59
2022/01/27 07:38:43;;;;;;;29.02;16.08;;;6.10;99.90;;;;;;5056960;28;20071;-59
2022/01/27 07:41:12;;;;;;;29.67;17.63;;;6.10;99.90;;;;;;5075921;28;20017;-60
2022/01/27 07:43:39;;;;;;;33.63;17.42;;;6.20;99.90;;;;;;5057758;28;20029;-59
2022/01/27 07:46:06;;;;;;;34.17;17.00;;;6.20;99.90;;;;;;5075151;28;20388;-59
2022/01/27 07:48:32;;;;;;;31.77;17.75;;;6.10;99.90;;;;;;5072076;28;20540;-59
2022/01/27 07:50:57;;;;;;;29.75;16.73;;;6.10;99.90;;;;;;5075279;28;20111;-59
2022/01/27 07:53:23;;;;;;;33.10;16.92;;;6.20;99.90;;;;;;5056289;28;20059;-59
2022/01/27 07:55:49;;;;;;;33.67;16.90;;;6.10;99.90;;;;;;5056746;28;20070;-59
2022/01/27 07:58:14;;;;;;;36.05;18.60;;;6.10;99.90;;;;;;5056579;28;20033;-59
2022/01/27 08:00:40;;;;;;;30.70;17.33;;;6.10;99.90;;;;;;5069185;28;20025;-59
2022/01/27 08:03:05;;;;;;;30.83;17.40;;;6.10;99.90;;;;;;5074636;28;20485;-59
2022/01/27 08:05:31;;;;;;;28.02;16.05;;;6.10;99.90;;;;;;5057496;28;20438;-59
2022/01/27 08:07:57;;;;;;;32.72;16.73;;;6.10;99.90;;;;;;5075478;28;20090;-59
2022/01/27 08:10:22;;;;;;;33.08;17.13;;;6.20;99.90;;;;;;5075745;28;20031;-59
2022/01/27 08:12:48;;;;;;;31.20;16.83;;;6.10;99.90;;;;;;5056867;28;20024;-59
2022/01/27 08:15:15;;;;;;;32.97;18.40;;;6.20;99.90;;;;;;5075238;28;20028;-59
2022/01/27 08:17:41;;;;;;;28.45;16.20;;;6.20;99.90;;;;;;5075200;28;20070;-59
2022/01/27 08:20:07;;;;;;;29.13;16.55;;;6.20;99.90;;;;;;5075290;28;20050;-59
2022/01/27 08:22:39;;;;;;;31.23;16.80;;;6.20;99.90;;;;;;5057267;28;20032;-59
2022/01/27 08:25:06;;;;;;;36.17;17.35;;;6.20;99.90;;;;;;5082303;28;20020;-59
2022/01/27 08:27:33;;;;;;;32.00;16.40;;;6.20;99.90;;;;;;5066579;28;20032;-59
2022/01/27 08:30:03;;;;;;;29.92;16.40;;;6.20;99.90;;;;;;5065872;28;20039;-59
2022/01/27 08:35:19;;;;;;;28.05;15.77;;;6.30;99.90;;;;;;5073533;28;20397;-59
2022/01/27 08:37:45;;;;;;;24.48;14.88;;;6.30;99.90;;;;;;5054771;28;20518;-60
2022/01/27 08:40:14;;;;;;;30.45;16.17;;;6.30;99.90;;;;;;5074779;28;20036;-59
2022/01/27 08:42:40;;;;;;;25.17;15.27;;;6.30;99.90;;;;;;5074815;28;20028;-59
2022/01/27 08:45:30;;;;;;;;;;;;;;;;;;;;;
2022/01/27 08:47:58;;;;;;;27.77;16.02;;;6.40;99.90;;;;;;5074503;28;20028;-59
2022/01/27 08:50:25;;;;;;;27.83;15.20;;;6.40;99.90;;;;;;5074349;28;20021;-59
2022/01/27 08:52:51;;;;;;;26.75;15.40;;;6.40;99.90;;;;;;5074612;28;20150;-59
2022/01/27 08:55:20;;;;;;;24.70;13.93;;;6.50;99.90;;;;;;5056046;28;20054;-59
2022/01/27 08:57:46;;;;;;;24.83;14.30;;;6.50;99.90;;;;;;5071758;28;20127;-59
2022/01/27 09:00:13;;;;;;;25.38;14.25;;;6.50;99.90;;;;;;5056628;28;20107;-59
2022/01/27 09:02:39;;;;;;;22.15;13.63;;;6.60;99.90;;;;;;5074263;28;20582;-59
2022/01/27 09:05:05;;;;;;;26.30;14.23;;;6.60;99.90;;;;;;5056231;28;20119;-59
2022/01/27 09:07:30;;;;;;;22.15;13.95;;;6.60;99.90;;;;;;5056406;28;20036;-60
2022/01/27 09:09:57;;;;;;;23.17;14.13;;;6.60;99.90;;;;;;5074235;28;20138;-59
2022/01/27 09:12:22;;;;;;;26.42;15.43;;;6.60;99.90;;;;;;5073946;28;20511;-59
2022/01/27 09:14:48;;;;;;;25.25;13.43;;;6.70;99.90;;;;;;5073852;28;20040;-59
2022/01/27 09:17:14;;;;;;;22.77;13.25;;;6.70;99.90;;;;;;5074135;28;20028;-59
2022/01/27 09:19:42;;;;;;;22.23;13.48;;;6.70;99.90;;;;;;5056053;28;20443;-59
2022/01/27 09:22:12;;;;;;;21.90;13.32;;;6.70;99.90;;;;;;5074242;28;20282;-59
2022/01/27 09:24:49;;;;;;;22.52;12.85;;;6.70;99.90;;;;;;5052613;28;20036;-60
2022/01/27 09:27:14;;;;;;;23.48;14.23;;;6.80;99.90;;;;;;5066886;28;20449;-59
2022/01/27 09:29:40;;;;;;;22.33;13.32;;;6.80;99.90;;;;;;5072017;28;20063;-59
2022/01/27 09:32:06;;;;;;;26.92;14.07;;;6.80;99.90;;;;;;5039497;28;20068;-60
2022/01/27 09:34:32;;;;;;;21.85;13.25;;;6.80;99.90;;;;;;5052524;28;20381;-59
2022/01/27 09:37:02;;;;;;;24.90;13.05;;;6.80;99.90;;;;;;5053639;28;20029;-59
2022/01/27 09:39:28;;;;;;;24.77;12.38;;;6.80;99.90;;;;;;5072543;28;20020;-59
2022/01/27 09:41:56;;;;;;;21.08;12.30;;;6.80;99.90;;;;;;5072086;28;20050;-59
2022/01/27 09:44:27;;;;;;;20.63;11.93;;;6.80;99.90;;;;;;5072034;28;20033;-59
2022/01/27 09:46:55;;;;;;;21.65;12.70;;;6.80;99.90;;;;;;5070930;28;20020;-59
2022/01/27 09:49:30;;;;;;;22.40;12.23;;;6.90;99.90;;;;;;5054442;28;20017;-59
2022/01/27 09:51:56;;;;;;;18.13;10.90;;;6.80;99.90;;;;;;5054504;28;20055;-59
2022/01/27 09:54:21;;;;;;;19.45;11.98;;;6.90;99.90;;;;;;5053930;28;20059;-59
2022/01/27 09:56:47;;;;;;;18.60;12.05;;;6.90;99.90;;;;;;5053307;28;20036;-58
2022/01/27 09:59:13;;;;;;;20.42;11.50;;;6.90;99.90;;;;;;5071983;28;20024;-60
2022/01/27 10:01:56;;;;;;;20.30;11.70;;;6.90;99.90;;;;;;5054123;28;20043;-59
2022/01/27 10:04:23;;;;;;;20.60;12.02;;;7.00;99.90;;;;;;5054143;28;20043;-59
2022/01/27 10:06:56;;;;;;;17.58;11.52;;;7.00;99.90;;;;;;5056325;28;20031;-59
2022/01/27 10:09:27;;;;;;;19.33;10.57;;;7.00;99.90;;;;;;5087775;28;20475;-59
2022/01/27 10:11:53;;;;;;;19.60;10.60;;;7.00;99.90;;;;;;5071521;28;20075;-59
2022/01/27 10:14:27;;;;;;;15.98;10.80;;;7.00;99.90;;;;;;5067759;28;20036;-60
2022/01/27 10:16:56;;;;;;;15.73;9.95;;;7.10;99.90;;;;;;5062542;28;20020;-60
2022/01/27 10:19:23;;;;;;;13.50;8.95;;;7.10;99.90;;;;;;5035809;28;20041;-60
2022/01/27 10:21:49;;;;;;;15.27;9.80;;;7.10;99.90;;;;;;5070852;28;20034;-60
2022/01/27 10:24:18;;;;;;;17.63;10.25;;;7.10;99.90;;;;;;5071584;28;20036;-59
2022/01/27 10:26:52;;;;;;;15.50;8.63;;;7.10;99.90;;;;;;5072221;28;20107;-59
2022/01/27 10:29:30;;;;;;;12.05;8.45;;;7.10;99.90;;;;;;5073712;28;20119;-59
2022/01/27 10:32:06;;;;;;;16.27;9.05;;;7.10;99.90;;;;;;5073817;28;20044;-60
2022/01/27 10:34:56;;;;;;;13.93;9.00;;;7.20;99.90;;;;;;5091794;28;20051;-59
2022/01/27 10:37:21;;;;;;;13.77;8.83;;;7.20;99.90;;;;;;5051852;28;20020;-59
2022/01/27 10:39:47;;;;;;;13.43;8.63;;;7.30;99.90;;;;;;5070844;28;20021;-59
2022/01/27 10:42:14;;;;;;;12.32;8.07;;;7.30;99.90;;;;;;5051732;28;20021;-59
2022/01/27 10:44:47;;;;;;;11.27;7.95;;;7.30;99.90;;;;;;5070934;28;20040;-59
2022/01/27 10:47:18;;;;;;;14.50;8.32;;;7.40;99.90;;;;;;5060024;28;20036;-59
2022/01/27 10:49:51;;;;;;;13.35;8.10;;;7.40;99.90;;;;;;5051226;28;20553;-59
2022/01/27 10:52:41;;;;;;;14.50;9.02;;;7.40;99.90;;;;;;5051267;28;20025;-59
2022/01/27 10:55:07;;;;;;;;;;;7.40;99.90;;;;;;5033030;28;20122;-59
2022/01/27 10:57:32;;;;;;;11.88;8.60;;;7.40;99.90;;;;;;5062296;28;19999;-59
2022/01/27 11:00:12;;;;;;;18.52;9.10;;;7.40;99.90;;;;;;5071514;28;20035;-59
2022/01/27 11:03:12;;;;;;;16.87;9.37;;;7.50;99.90;;;;;;5072842;28;20036;-59
2022/01/27 11:05:41;;;;;;;13.32;8.43;;;7.50;99.90;;;;;;5054471;28;20287;-59
2022/01/27 11:08:07;;;;;;;17.80;9.07;;;7.50;99.90;;;;;;5054285;28;20476;-59
2022/01/27 11:10:32;;;;;;;15.43;9.10;;;7.50;99.90;;;;;;5072300;28;20051;-59
2022/01/27 11:12:59;;;;;;;15.80;10.02;;;7.60;99.90;;;;;;5070812;28;20021;-60
2022/01/27 11:15:25;;;;;;;16.27;9.88;;;7.60;99.90;;;;;;5052011;28;20024;-59
2022/01/27 11:17:53;;;;;;;17.77;9.10;;;7.60;99.90;;;;;;5072328;28;20039;-59
2022/01/27 11:20:48;;;;;;;15.38;10.05;;;7.60;99.90;;;;;;5051806;28;20032;-59
2022/01/27 11:23:47;;;;;;;18.20;9.55;;;7.70;99.90;;;;;;5071778;28;20017;-59
2022/01/27 11:26:12;;;;;;;17.70;10.45;;;7.70;99.90;;;;;;5071556;28;20025;-59
2022/01/27 11:28:42;;;;;;;21.00;9.98;;;7.70;99.90;;;;;;5053524;28;20035;-59
2022/01/27 11:31:19;;;;;;;;;;;7.70;99.90;;;;;;5071845;28;20040;-59
2022/01/27 11:33:59;;;;;;;14.68;9.55;;;7.70;99.90;;;;;;5054049;28;20383;-59
2022/01/27 11:36:25;;;;;;;16.95;9.25;;;7.80;99.90;;;;;;5053076;28;20028;-59
2022/01/27 11:38:51;;;;;;;18.75;10.57;;;7.80;99.90;;;;;;5071528;28;20040;-59
2022/01/27 11:41:36;;;;;;;19.33;9.80;;;7.80;99.90;;;;;;5071603;28;20096;-59
2022/01/27 11:44:28;;;;;;;19.23;10.27;;;7.90;99.90;;;;;;5071677;28;20029;-59
2022/01/27 11:47:09;;;;;;;16.48;9.27;;;7.90;99.90;;;;;;5070432;28;20036;-59
2022/01/27 11:50:32;;;;;;;14.98;9.18;;;7.90;99.90;;;;;;5044967;28;20480;-59
2022/01/27 11:53:06;;;;;;;16.83;9.27;;;7.90;99.90;;;;;;5064175;28;20423;-59
2022/01/27 11:56:07;;;;;;;;;;;;;;;;;;;;;
2022/01/27 11:58:50;;;;;;;13.93;7.90;;;7.90;99.90;;;;;;5058815;28;20029;-59
2022/01/27 12:01:22;;;;;;;19.63;8.85;;;7.90;99.90;;;;;;5041524;28;20032;-59
2022/01/27 12:04:06;;;;;;;17.15;8.40;;;8.00;99.90;;;;;;5028112;28;20039;-59
2022/01/27 12:06:48;;;;;;;17.27;8.77;;;8.00;99.90;;;;;;5065381;28;20480;-59
2022/01/27 12:09:19;;;;;;;21.13;8.65;;;8.00;99.90;;;;;;5042805;28;20459;-59
2022/01/27 12:12:01;;;;;;;19.83;8.10;;;8.00;99.90;;;;;;5071950;28;20016;-59
2022/01/27 12:14:31;;;;;;;16.58;7.75;;;8.00;99.90;;;;;;5073894;28;20059;-59
2022/01/27 12:17:09;;;;;;;16.60;7.75;;;8.00;99.90;;;;;;5073978;28;20032;-59
2022/01/27 12:20:09;;;;;;;17.33;8.23;;;8.00;99.90;;;;;;5046814;28;20396;-59
2022/01/27 12:22:47;;;;;;;18.08;7.20;;;8.10;99.90;;;;;;5025909;28;20036;-59
2022/01/27 12:25:14;;;;;;;10.73;7.47;;;8.10;99.90;;;;;;5069782;28;20549;-59
2022/01/27 12:27:41;;;;;;;16.02;8.23;;;8.10;99.90;;;;;;5057335;28;20020;-59
2022/01/27 12:30:12;;;;;;;17.65;7.65;;;8.10;99.90;;;;;;5074896;28;20017;-59
2022/01/27 12:32:37;;;;;;;17.80;8.80;;;8.10;99.90;;;;;;5072875;28;20055;-59
2022/01/27 12:35:12;;;;;;;13.77;8.55;;;8.10;99.90;;;;;;5061317;28;20103;-59
2022/01/27 12:37:46;;;;;;;18.02;8.27;;;8.20;99.90;;;;;;5045384;28;20031;-59
2022/01/27 12:40:20;;;;;;;20.55;9.85;;;8.20;99.90;;;;;;5053069;28;20032;-59
2022/01/27 12:42:49;;;;;;;20.17;8.38;;;8.20;99.90;;;;;;5055212;28;20106;-60
2022/01/27 12:45:15;;;;;;;16.08;9.50;;;8.20;99.90;;;;;;5074313;28;20074;-60
2022/01/27 12:47:43;;;;;;;20.27;9.30;;;8.20;99.90;;;;;;5057362;28;20480;-59
2022/01/27 12:50:22;;;;;;;20.83;8.68;;;8.20;99.90;;;;;;5054054;28;20104;-59
2022/01/27 12:52:52;;;;;;;19.52;9.05;;;8.30;99.90;;;;;;5054107;28;20040;-59
2022/01/27 12:55:25;;;;;;;18.63;7.97;;;8.30;99.90;;;;;;5045934;28;20060;-59
2022/01/27 12:58:11;;;;;;;18.33;8.40;;;8.30;99.90;;;;;;5073375;28;20031;-59
2022/01/27 13:00:46;;;;;;;18.20;8.13;;;8.30;99.90;;;;;;5069255;28;20480;-59
2022/01/27 13:03:12;;;;;;;19.23;8.77;;;8.30;99.90;;;;;;5063045;28;20472;-59
2022/01/27 13:05:48;;;;;;;19.73;9.60;;;8.40;99.90;;;;;;5073254;28;20032;-59
2022/01/27 13:08:16;;;;;;;17.58;8.40;;;8.50;99.90;;;;;;5073740;28;20067;-59
2022/01/27 13:10:48;;;;;;;17.35;8.25;;;8.50;99.90;;;;;;5073237;28;20099;-59
2022/01/27 13:13:37;;;;;;;17.00;8.52;;;8.60;99.90;;;;;;5072756;28;20021;-59
2022/01/27 13:16:06;;;;;;;17.83;8.57;;;8.60;99.90;;;;;;5070312;28;20028;-59
2022/01/27 13:18:57;;;;;;;;;;;8.60;99.90;;;;;;5073825;28;20115;-59
2022/01/27 13:21:32;;;;;;;15.70;8.05;;;8.60;99.90;;;;;;5074145;28;19912;-59
2022/01/27 13:24:08;;;;;;;14.77;7.38;;;8.60;99.90;;;;;;5073876;28;20492;-58
2022/01/27 13:26:34;;;;;;;19.30;7.55;;;8.70;99.90;;;;;;5073681;28;20024;-59
2022/01/27 13:28:59;;;;;;;16.08;7.07;;;8.70;99.90;;;;;;5055759;28;20385;-59
2022/01/27 13:31:26;;;;;;;16.40;7.57;;;8.70;99.90;;;;;;5073549;28;20045;-59